Time;durP1;ratioP1;P1;durP2;ratioP2;P2;SDS_P1;SDS_P2;PMS_P1;PMS_P2;Temp;Humidity;BMP_temperature;BMP_pressure;BME280_temperature;BME280_humidity;BME280_pressure;Samples;Min_cycle;Max_cycle;Signal;HPM_P1;HPM_P2
2022/02/10 00:14:35;;;;;;;2.70;1.85;;;;;;;;;;4946859;29;20035;-49
2022/02/10 00:22:09;;;;;;;4.35;2.50;;;;;;;;;;4943704;29;20043;-50
2022/02/10 00:25:08;;;;;;;2.83;1.92;;;;;;;;;;4946353;29;20023;-50
2022/02/10 00:35:59;;;;;;;2.67;1.95;;;;;;;;;;4941459;29;20070;-50
2022/02/10 00:38:23;;;;;;;2.97;2.17;;;;;;;;;;4946888;28;20051;-50
2022/02/10 00:40:48;;;;;;;2.20;1.52;;;;;;;;;;4945748;29;20085;-50
2022/02/10 00:43:14;;;;;;;2.93;1.83;;;;;;;;;;4951526;29;20031;-50
2022/02/10 00:45:39;;;;;;;3.08;1.90;;;;;;;;;;4944779;29;20163;-52
2022/02/10 00:48:10;;;;;;;3.45;2.00;;;;;;;;;;4948512;29;20078;-51
2022/02/10 00:50:36;;;;;;;2.78;1.90;;;;;;;;;;4945186;29;20050;-50
2022/02/10 00:53:06;;;;;;;2.95;2.00;;;;;;;;;;4951116;29;20028;-49
2022/02/10 00:55:34;;;;;;;4.28;2.10;;;;;;;;;;4945198;29;20163;-50
2022/02/10 00:58:03;;;;;;;2.70;2.10;;;;;;;;;;4948074;29;20032;-51
2022/02/10 01:29:43;;;;;;;3.47;2.30;;;;;;;;;;4948220;29;20553;-50
2022/02/10 01:32:08;;;;;;;3.35;2.30;;;;;;;;;;4949309;29;20786;-50
2022/02/10 01:34:38;;;;;;;3.45;2.38;;;;;;;;;;4949147;29;20061;-51
2022/02/10 01:37:03;;;;;;;3.10;2.42;;;;;;;;;;4942528;29;20033;-51
2022/02/10 01:39:34;;;;;;;4.13;2.40;;;;;;;;;;4949423;29;20499;-50
2022/02/10 01:58:24;;;;;;;4.00;2.83;;;;;;;;;;4948301;29;20568;-49
2022/02/10 02:03:33;;;;;;;3.65;2.80;;;;;;;;;;4941860;29;20038;-50
2022/02/10 02:06:06;;;;;;;3.97;2.73;;;;;;;;;;4940929;29;20051;-50
2022/02/10 02:08:35;;;;;;;3.30;2.40;;;;;;;;;;4949460;29;20314;-48
2022/02/10 02:11:01;;;;;;;4.40;2.63;;;;;;;;;;4944617;29;20494;-50
2022/02/10 02:13:26;;;;;;;4.30;2.72;;;;;;;;;;4950381;29;20078;-50
2022/02/10 02:15:51;;;;;;;3.97;2.80;;;;;;;;;;4942167;29;20031;-50
2022/02/10 02:18:17;;;;;;;3.28;2.28;;;;;;;;;;4948839;29;20020;-49
2022/02/10 02:20:44;;;;;;;4.03;2.67;;;;;;;;;;4944070;29;20038;-50
2022/02/10 02:23:09;;;;;;;4.10;2.88;;;;;;;;;;4926614;29;20052;-50
2022/02/10 02:25:34;;;;;;;3.67;2.47;;;;;;;;;;4938066;29;20055;-50
2022/02/10 02:28:00;;;;;;;3.55;2.70;;;;;;;;;;4946000;29;20073;-50
2022/02/10 02:30:36;;;;;;;4.53;3.05;;;;;;;;;;4926650;29;20043;-51
2022/02/10 02:36:21;;;;;;;4.00;2.75;;;;;;;;;;4942460;29;20049;-51
2022/02/10 03:05:45;;;;;;;4.05;2.70;;;;;;;;;;4942959;29;20051;-52
2022/02/10 03:08:17;;;;;;;4.32;3.38;;;;;;;;;;4946911;29;20046;-50
2022/02/10 03:10:59;;;;;;;4.05;2.72;;;;;;;;;;4943258;29;20486;-49
2022/02/10 03:13:36;;;;;;;3.90;2.83;;;;;;;;;;4949138;29;20111;-50
2022/02/10 03:18:46;;;;;;;4.40;3.05;;;;;;;;;;4949190;29;20504;-50
2022/02/10 04:30:52;;;;;;;5.70;3.33;;;;;;;;;;4941847;29;20303;-50
2022/02/10 05:00:31;;;;;;;5.43;3.40;;;;;;;;;;4931485;29;20094;-50
2022/02/10 05:19:15;;;;;;;4.70;3.35;;;;;;;;;;4947630;29;20089;-51
2022/02/10 05:35:03;;;;;;;4.90;3.28;;;;;;;;;;4948394;29;20031;-51
2022/02/10 05:37:34;;;;;;;4.97;3.40;;;;;;;;;;4948480;29;20421;-50
2022/02/10 05:40:03;;;;;;;5.15;3.55;;;;;;;;;;4947113;29;20058;-51
2022/02/10 05:45:37;;;;;;;5.00;3.55;;;;;;;;;;4932727;29;20032;-50
2022/02/10 05:56:09;;;;;;;5.47;3.83;;;;;;;;;;4945335;29;20593;-51
2022/02/10 06:52:17;;;;;;;4.47;3.38;;;;;;;;;;4948875;29;20155;-51
2022/02/10 06:57:51;;;;;;;4.70;3.83;;;;;;;;;;4930282;29;20184;-50
2022/02/10 08:26:13;;;;;;;6.85;4.05;;;;;;;;;;4939769;29;20057;-50
2022/02/10 08:55:54;;;;;;;5.95;4.78;;;;;;;;;;4934980;29;20034;-50
2022/02/10 10:02:36;;;;;;;6.57;4.00;;;;;;;;;;4938672;29;20046;-52
2022/02/10 10:05:22;;;;;;;6.32;4.20;;;;;;;;;;4933903;29;20020;-52
2022/02/10 10:18:51;;;;;;;5.40;3.85;;;;;;;;;;4950453;29;20034;-50
2022/02/10 10:21:11;;;;;;;6.47;3.80;;;;;;;;;;4930320;29;20042;-51
2022/02/10 10:50:51;;;;;;;6.57;3.60;;;;;;;;;;4943690;29;20505;-51
2022/02/10 10:53:24;;;;;;;4.65;3.15;;;;;;;;;;4941876;29;20033;-50
2022/02/10 10:58:57;;;;;;;6.43;3.75;;;;;;;;;;4944695;29;20413;-51
2022/02/10 12:29:36;;;;;;;4.53;3.03;;;;;;;;;;4947719;29;20561;-49
2022/02/10 12:38:29;;;;;;;4.10;3.20;;;;;;;;;;4940452;29;20027;-51
2022/02/10 14:14:08;;;;;;;4.55;3.40;;;;;;;;;;4912793;29;20066;-51
2022/02/10 14:16:38;;;;;;;3.92;3.03;;;;;;;;;;4940496;29;20125;-52
2022/02/10 14:19:17;;;;;;;3.97;2.83;;;;;;;;;;4935982;29;20110;-51
2022/02/10 14:21:59;;;;;;;3.28;2.80;;;;;;;;;;4945037;29;20042;-50
2022/02/10 14:27:08;;;;;;;3.60;2.90;;;;;;;;;;4940447;29;20038;-51
2022/02/10 14:29:34;;;;;;;4.25;3.20;;;;;;;;;;4949540;29;20039;-50
2022/02/10 14:31:59;;;;;;;5.22;3.40;;;;;;;;;;4943835;29;20094;-50
2022/02/10 14:34:27;;;;;;;4.35;3.22;;;;;;;;;;4944871;29;20411;-51
2022/02/10 14:37:11;;;;;;;5.50;3.50;;;;;;;;;;4943617;29;20122;-52
2022/02/10 15:32:37;;;;;;;5.85;3.75;;;;;;;;;;4948920;29;20041;-50
2022/02/10 16:17:04;;;;;;;5.45;3.70;;;;;;;;;;4942107;29;20130;-51
2022/02/10 16:19:31;;;;;;;6.20;4.22;;;;;;;;;;4918463;29;20042;-50
2022/02/10 16:24:46;;;;;;;6.03;4.28;;;;;;;;;;4942999;29;20090;-51
2022/02/10 16:27:18;;;;;;;4.75;3.60;;;;;;;;;;4941860;29;20405;-50
2022/02/10 16:29:43;;;;;;;5.55;3.65;;;;;;;;;;4947767;29;20094;-51
2022/02/10 16:32:09;;;;;;;6.70;4.05;;;;;;;;;;4923346;29;20023;-51
2022/02/10 16:34:38;;;;;;;4.85;3.45;;;;;;;;;;4943857;29;20516;-51
2022/02/10 16:37:03;;;;;;;4.80;3.75;;;;;;;;;;4941723;29;20705;-50
2022/02/10 16:39:29;;;;;;;5.53;3.83;;;;;;;;;;4947977;29;20565;-51
2022/02/10 16:41:54;;;;;;;5.23;3.57;;;;;;;;;;4943869;29;20498;-50
2022/02/10 16:44:19;;;;;;;6.15;3.90;;;;;;;;;;4942114;29;20503;-51
2022/02/10 16:46:46;;;;;;;6.37;3.87;;;;;;;;;;4941876;29;20106;-50
2022/02/10 16:49:11;;;;;;;5.65;3.72;;;;;;;;;;4943835;29;20275;-51
2022/02/10 16:51:38;;;;;;;4.97;3.75;;;;;;;;;;4939306;29;20091;-52
2022/02/10 16:54:15;;;;;;;5.13;3.90;;;;;;;;;;4942128;29;20105;-51
2022/02/10 16:57:22;;;;;;;5.10;4.28;;;;;;;;;;4942247;29;20126;-48
2022/02/10 17:20:43;;;;;;;17.50;5.30;;;;;;;;;;4946082;28;20483;-52
2022/02/10 17:26:03;;;;;;;8.90;4.63;;;;;;;;;;4947287;29;20097;-51
2022/02/10 17:28:28;;;;;;;9.52;4.60;;;;;;;;;;4946230;29;20038;-51
2022/02/10 17:33:37;;;;;;;9.75;4.25;;;;;;;;;;4949686;29;20019;-50
2022/02/10 17:46:39;;;;;;;8.35;4.55;;;;;;;;;;4945017;29;20458;-50
2022/02/10 17:52:34;;;;;;;8.25;4.78;;;;;;;;;;4946979;29;20022;-49
2022/02/10 17:54:37;;;;;;;5.68;4.13;;;;;;;;;;4944261;29;20039;-50
2022/02/10 17:57:02;;;;;;;7.63;4.00;;;;;;;;;;4926238;29;20038;-51
2022/02/10 17:59:28;;;;;;;7.38;4.70;;;;;;;;;;4950419;29;20374;-51
2022/02/10 18:01:53;;;;;;;7.65;4.80;;;;;;;;;;4947145;29;20066;-50
2022/02/10 18:04:19;;;;;;;9.55;5.70;;;;;;;;;;4945659;29;20118;-51
2022/02/10 18:06:47;;;;;;;8.93;5.63;;;;;;;;;;4944210;29;20429;-50
2022/02/10 18:14:48;;;;;;;43.05;8.73;;;;;;;;;;4950355;29;20031;-50
2022/02/10 18:17:31;;;;;;;11.57;7.13;;;;;;;;;;4943788;29;20031;-51
2022/02/10 18:20:01;;;;;;;12.32;7.45;;;;;;;;;;4950823;29;20063;-50
2022/02/10 18:22:57;;;;;;;11.75;7.35;;;;;;;;;;4944713;29;20038;-50
2022/02/10 18:28:04;;;;;;;12.25;7.63;;;;;;;;;;4946489;29;20382;-51
2022/02/10 18:33:26;;;;;;;13.02;7.40;;;;;;;;;;4948425;29;20023;-50
2022/02/10 18:33:36;;;;;;;10.85;7.00;;;;;;;;;;4935575;29;20027;-51
2022/02/10 19:10:10;;;;;;;10.27;6.95;;;;;;;;;;4948623;29;20037;-51
2022/02/10 19:12:44;;;;;;;11.40;7.38;;;;;;;;;;4943485;29;20111;-50
2022/02/10 19:15:21;;;;;;;11.23;6.90;;;;;;;;;;4947556;29;20039;-51
2022/02/10 19:17:47;;;;;;;11.68;6.57;;;;;;;;;;4945029;29;20031;-50
2022/02/10 19:20:13;;;;;;;10.45;7.20;;;;;;;;;;4949628;29;20031;-51
2022/02/10 19:22:38;;;;;;;10.63;6.85;;;;;;;;;;4949574;29;20027;-51
2022/02/10 19:25:07;;;;;;;9.18;6.47;;;;;;;;;;4949389;29;20421;-50
2022/02/10 19:27:33;;;;;;;9.68;6.22;;;;;;;;;;4949431;29;20102;-51
2022/02/10 19:29:59;;;;;;;10.57;6.75;;;;;;;;;;4949008;29;20115;-51
2022/02/10 19:32:27;;;;;;;9.93;7.32;;;;;;;;;;4945080;29;20044;-51
2022/02/10 19:34:54;;;;;;;11.30;6.80;;;;;;;;;;4946159;29;20027;-50
2022/02/10 19:37:19;;;;;;;10.43;6.97;;;;;;;;;;4949676;29;20015;-51
2022/02/10 19:39:51;;;;;;;9.05;6.32;;;;;;;;;;4925551;29;20487;-51
2022/02/10 19:42:16;;;;;;;10.15;7.28;;;;;;;;;;4943612;29;20027;-51
2022/02/10 19:44:41;;;;;;;10.57;7.63;;;;;;;;;;4944618;29;20041;-51
2022/02/10 19:47:06;;;;;;;10.37;7.33;;;;;;;;;;4949448;29;20115;-51
2022/02/10 19:49:32;;;;;;;12.10;7.63;;;;;;;;;;4932612;29;20054;-53
2022/02/10 19:51:57;;;;;;;11.15;7.53;;;;;;;;;;4950056;29;20039;-51
2022/02/10 19:54:28;;;;;;;11.83;8.10;;;;;;;;;;4948726;29;20101;-53
2022/02/10 19:56:54;;;;;;;10.50;7.40;;;;;;;;;;4942690;29;20353;-51
2022/02/10 19:59:23;;;;;;;10.07;7.63;;;;;;;;;;4948546;29;20054;-51
2022/02/10 20:01:50;;;;;;;11.95;7.72;;;;;;;;;;4945947;29;20122;-51
2022/02/10 20:04:19;;;;;;;13.25;8.23;;;;;;;;;;4944954;29;20038;-52
2022/02/10 20:06:44;;;;;;;11.55;7.78;;;;;;;;;;4925676;29;20289;-51
2022/02/10 20:09:09;;;;;;;10.83;7.83;;;;;;;;;;4936271;29;20051;-51
2022/02/10 20:11:34;;;;;;;10.35;7.28;;;;;;;;;;4945670;29;20290;-53
2022/02/10 20:14:00;;;;;;;11.30;8.23;;;;;;;;;;4944150;29;20023;-51
2022/02/10 20:16:25;;;;;;;10.13;7.97;;;;;;;;;;4942090;29;20024;-51
2022/02/10 20:18:50;;;;;;;10.93;7.80;;;;;;;;;;4948223;29;21025;-50
2022/02/10 20:21:15;;;;;;;12.68;8.25;;;;;;;;;;4943626;29;20038;-51
2022/02/10 20:23:41;;;;;;;13.27;7.93;;;;;;;;;;4936359;29;20537;-52
2022/02/10 20:26:06;;;;;;;11.02;7.72;;;;;;;;;;4935518;29;20039;-50
2022/02/10 20:28:32;;;;;;;10.47;8.03;;;;;;;;;;4943706;29;20027;-51
2022/02/10 20:30:59;;;;;;;12.85;7.82;;;;;;;;;;4945022;29;20106;-50
2022/02/10 20:33:28;;;;;;;10.57;7.63;;;;;;;;;;4911558;29;20089;-51
2022/02/10 20:35:56;;;;;;;11.00;7.35;;;;;;;;;;4944114;29;20044;-52
2022/02/10 20:38:21;;;;;;;10.10;7.68;;;;;;;;;;4943566;29;20189;-50
2022/02/10 20:40:54;;;;;;;10.60;7.60;;;;;;;;;;4946203;29;20764;-50
2022/02/10 20:43:20;;;;;;;11.15;8.02;;;;;;;;;;4940786;29;20047;-52
2022/02/10 20:45:52;;;;;;;10.77;7.57;;;;;;;;;;4928776;29;20058;-51
2022/02/10 20:48:18;;;;;;;11.23;7.43;;;;;;;;;;4947089;29;20263;-50
2022/02/10 20:50:43;;;;;;;9.83;7.10;;;;;;;;;;4945535;29;20098;-51
2022/02/10 20:53:08;;;;;;;10.10;6.97;;;;;;;;;;4943097;29;20267;-52
2022/02/10 20:55:33;;;;;;;10.47;7.50;;;;;;;;;;4947627;28;20741;-51
2022/02/10 20:57:58;;;;;;;11.27;7.23;;;;;;;;;;4947786;29;20482;-51
2022/02/10 21:00:29;;;;;;;11.03;7.73;;;;;;;;;;4950582;29;20686;-52
2022/02/10 21:02:55;;;;;;;10.98;7.57;;;;;;;;;;4946780;29;20039;-51
2022/02/10 21:07:56;;;;;;;10.90;7.00;;;;;;;;;;4945696;29;20116;-51
2022/02/10 21:10:24;;;;;;;10.73;8.00;;;;;;;;;;4933947;29;20409;-51
2022/02/10 21:12:49;;;;;;;10.05;7.60;;;;;;;;;;4946698;29;20060;-51
2022/02/10 21:15:19;;;;;;;11.40;7.33;;;;;;;;;;4950469;29;20054;-52
2022/02/10 21:17:45;;;;;;;11.25;7.78;;;;;;;;;;4946183;29;20259;-51
2022/02/10 21:20:11;;;;;;;9.95;7.13;;;;;;;;;;4951196;29;20051;-51
2022/02/10 21:22:41;;;;;;;9.82;7.15;;;;;;;;;;4947118;29;20034;-51
2022/02/10 21:27:46;;;;;;;10.55;7.35;;;;;;;;;;4945392;29;20027;-52
2022/02/10 21:30:12;;;;;;;9.82;7.43;;;;;;;;;;4950830;29;20039;-51
2022/02/10 21:32:45;;;;;;;10.00;7.20;;;;;;;;;;4946344;29;20027;-51
2022/02/10 22:11:31;;;;;;;10.13;7.18;;;;;;;;;;4937180;29;20134;-52
2022/02/10 22:21:44;;;;;;;8.48;6.65;;;;;;;;;;4948151;29;20390;-49
2022/02/10 22:24:13;;;;;;;11.38;7.93;;;;;;;;;;4947127;29;20019;-50
2022/02/10 22:26:39;;;;;;;10.85;7.75;;;;;;;;;;4944473;29;20028;-49
2022/02/10 22:29:13;;;;;;;10.45;7.50;;;;;;;;;;4949681;29;20031;-51
2022/02/10 22:31:49;;;;;;;10.02;7.50;;;;;;;;;;4947935;29;20038;-50
2022/02/10 22:34:25;;;;;;;10.32;7.18;;;;;;;;;;4947022;29;20035;-50
2022/02/10 22:36:56;;;;;;;11.65;7.63;;;;;;;;;;4943347;29;20040;-50
2022/02/10 22:39:21;;;;;;;10.60;7.18;;;;;;;;;;4945629;29;20035;-50
2022/02/10 22:41:46;;;;;;;11.73;7.60;;;;;;;;;;4947986;29;20110;-50
2022/02/10 22:44:12;;;;;;;11.27;7.53;;;;;;;;;;4946378;29;20027;-50
2022/02/10 22:46:37;;;;;;;10.60;7.95;;;;;;;;;;4943961;29;20123;-50
2022/02/10 22:49:02;;;;;;;11.13;8.13;;;;;;;;;;4949747;29;20039;-50
2022/02/10 22:51:28;;;;;;;11.07;7.50;;;;;;;;;;4947269;29;20796;-49
2022/02/10 22:53:54;;;;;;;10.25;7.72;;;;;;;;;;4946846;29;20573;-49
2022/02/10 22:56:20;;;;;;;10.73;8.00;;;;;;;;;;4944776;29;20051;-50
2022/02/10 22:58:45;;;;;;;11.55;8.10;;;;;;;;;;4947476;29;20027;-50
2022/02/10 23:01:11;;;;;;;11.80;8.20;;;;;;;;;;4947264;29;20038;-51
2022/02/10 23:03:36;;;;;;;10.07;7.60;;;;;;;;;;4946409;29;20037;-50
2022/02/10 23:06:02;;;;;;;11.15;7.63;;;;;;;;;;4945722;29;20438;-50
2022/02/10 23:08:28;;;;;;;12.38;8.20;;;;;;;;;;4945557;29;20035;-50
2022/02/10 23:10:53;;;;;;;11.73;7.95;;;;;;;;;;4947843;29;20102;-50
2022/02/10 23:13:23;;;;;;;10.00;7.53;;;;;;;;;;4945551;29;20027;-49
2022/02/10 23:15:48;;;;;;;11.10;7.60;;;;;;;;;;4947422;29;20120;-49
2022/02/10 23:18:14;;;;;;;10.93;7.85;;;;;;;;;;4944956;28;20114;-50
2022/02/10 23:20:40;;;;;;;11.82;7.63;;;;;;;;;;4947151;29;20067;-51
2022/02/10 23:23:06;;;;;;;10.57;7.93;;;;;;;;;;4945747;29;20570;-50
2022/02/10 23:25:35;;;;;;;9.68;7.47;;;;;;;;;;4948403;29;20023;-50
2022/02/10 23:28:00;;;;;;;11.25;8.27;;;;;;;;;;4921155;29;20019;-50
2022/02/10 23:30:25;;;;;;;9.32;7.25;;;;;;;;;;4948309;29;20581;-51
2022/02/10 23:32:54;;;;;;;9.85;7.35;;;;;;;;;;4945149;29;20040;-50
2022/02/10 23:36:04;;;;;;;11.23;7.80;;;;;;;;;;4948905;29;20086;-49
2022/02/10 23:38:04;;;;;;;11.48;8.30;;;;;;;;;;4944835;29;20029;-50
2022/02/10 23:40:31;;;;;;;11.35;7.93;;;;;;;;;;4948433;29;20525;-51
2022/02/10 23:42:56;;;;;;;11.50;8.38;;;;;;;;;;4943375;29;20566;-50
2022/02/10 23:45:25;;;;;;;10.20;7.97;;;;;;;;;;4932696;29;20106;-50
2022/02/10 23:47:52;;;;;;;12.57;8.75;;;;;;;;;;4942276;29;20451;-50
2022/02/10 23:50:21;;;;;;;12.13;8.43;;;;;;;;;;4948682;29;20031;-50
2022/02/10 23:52:51;;;;;;;11.30;7.95;;;;;;;;;;4944645;29;20046;-50
2022/02/10 23:55:22;;;;;;;11.02;7.40;;;;;;;;;;4948234;29;20027;-50
